Economy, Missouri
Current Conditions -  °F | °C
As of 1:55 AM on Friday 24 Oct 2014 (Local Time) from KIRK Reporting Station
Moderate Fog Moderate Fog  
Wind Chill: 57°   Ceiling: 200
Heat Index: 57°   Visibility: 0.25mi
Dew Point: 57°   Wind: 7mph
Humidity: 100%   Direction: 250°WSW
Pressure: 30.07"   Gusts: NA
Location:  39.9265°N, 92.4529°W
Report Text: KIRK 240655Z AUTO 25006KT 1/4SM FG VV002 14/14 A3007 RMK AO2 SLP184 T01390139
Loading
Personal Weather Stations






























Interactive Weather Map
Tropical Storm Tracking
New forecast layout! Learn more

10-Day Weather Forecast

Advertisements
Track Severe Weather on mobile